createdAt,value
2023-04-20T00:01:29.027Z,4.80
2023-04-20T00:02:57.615Z,6.70
2023-04-20T00:07:41.009Z,4.50
2023-04-20T00:11:34.824Z,4.20
2023-04-20T00:13:02.654Z,3.50
2023-04-20T00:15:02.474Z,4.40
2023-04-20T00:22:13.394Z,3.50
2023-04-20T00:25:02.063Z,8.20
2023-04-20T00:27:23.119Z,4.60
2023-04-20T00:30:31.479Z,7.40
2023-04-20T00:32:02.406Z,7.20
2023-04-20T00:33:02.392Z,5.30
2023-04-20T00:34:02.353Z,4.10
2023-04-20T00:36:21.449Z,5.20
2023-04-20T00:38:59.212Z,4.50
2023-04-20T00:41:30.462Z,4.50
2023-04-20T00:45:28.173Z,4.00
2023-04-20T00:46:57.044Z,3.80
2023-04-20T00:48:26.049Z,5.10
2023-04-20T00:49:57.911Z,2.90
2023-04-20T00:50:56.185Z,5.20
2023-04-20T00:51:56.217Z,4.40
2023-04-20T00:53:47.593Z,7.10
2023-04-20T00:54:56.281Z,5.40
2023-04-20T00:56:23.628Z,5.90
2023-04-20T00:57:54.016Z,3.40
2023-04-20T01:00:56.305Z,3.10
2023-04-20T01:03:52.272Z,7.00
2023-04-20T01:09:42.528Z,10.60
2023-04-20T01:21:34.634Z,4.10
2023-04-20T01:24:27.264Z,5.30
2023-04-20T01:28:57.352Z,3.20
2023-04-20T01:31:08.892Z,7.10
2023-04-20T01:35:14.302Z,6.70
2023-04-20T01:38:39.843Z,6.40
2023-04-20T01:40:08.821Z,6.10
2023-04-20T01:41:38.098Z,3.70
2023-04-20T01:43:10.816Z,3.50
2023-04-20T01:46:05.445Z,5.60
2023-04-20T01:52:54.275Z,3.20
2023-04-20T01:55:21.746Z,4.80
2023-04-20T01:57:19.801Z,3.10
2023-04-20T02:04:22.731Z,5.50
2023-04-20T02:10:05.055Z,3.10
2023-04-20T02:11:39.277Z,4.00
2023-04-20T02:15:06.831Z,7.70
2023-04-20T02:16:35.767Z,3.80
2023-04-20T02:22:28.428Z,6.30
2023-04-20T02:27:25.455Z,3.40
2023-04-20T02:29:13.516Z,4.40
2023-04-20T02:31:02.248Z,6.50
2023-04-20T02:40:40.363Z,3.70
2023-04-20T02:42:09.263Z,9.40
2023-04-20T02:43:39.144Z,5.50
2023-04-20T02:45:08.101Z,4.50
2023-04-20T02:46:56.929Z,6.10
2023-04-20T02:50:07.399Z,3.00
2023-04-20T02:53:04.936Z,5.90
2023-04-20T02:58:21.754Z,4.90
2023-04-20T02:59:51.056Z,4.80
2023-04-20T03:01:21.919Z,4.40
2023-04-20T03:03:19.105Z,3.90
2023-04-20T03:06:28.815Z,4.60
2023-04-20T03:08:00.995Z,4.60
2023-04-20T03:09:27.908Z,6.30
2023-04-20T03:26:47.846Z,6.80
2023-04-20T03:28:45.396Z,4.30
2023-04-20T03:30:14.303Z,6.10
2023-04-20T03:32:03.088Z,10.70
2023-04-20T03:36:47.475Z,3.70
2023-04-20T03:43:31.096Z,6.60
2023-04-20T03:47:09.361Z,6.80
2023-04-20T03:48:40.212Z,5.00
2023-04-20T03:50:38.856Z,8.20
2023-04-20T03:54:32.254Z,7.40
2023-04-20T03:59:31.020Z,5.20
2023-04-20T04:01:50.617Z,6.70
2023-04-20T04:03:18.713Z,12.40
2023-04-20T04:09:32.017Z,5.20
2023-04-20T04:11:03.436Z,10.30
2023-04-20T04:12:51.772Z,7.10
2023-04-20T04:14:52.563Z,6.30
2023-04-20T04:18:22.018Z,6.90
2023-04-20T04:22:31.327Z,8.10
2023-04-20T04:26:18.880Z,6.00
2023-04-20T04:28:18.557Z,7.80
2023-04-20T04:32:52.303Z,8.70
2023-04-20T04:35:10.244Z,4.20
2023-04-20T04:39:17.836Z,5.50
2023-04-20T04:43:27.560Z,4.20
2023-04-20T04:51:23.173Z,7.30
2023-04-20T04:52:50.685Z,4.50
2023-04-20T04:55:39.790Z,5.40
2023-04-20T04:59:05.315Z,6.60
2023-04-20T05:02:45.750Z,5.70
2023-04-20T05:07:28.917Z,3.80
2023-04-20T05:11:52.145Z,7.30
2023-04-20T05:14:42.273Z,4.60
2023-04-20T05:16:10.698Z,5.00
2023-04-20T05:23:09.284Z,4.70
2023-04-20T05:26:49.591Z,7.90
2023-04-20T05:30:35.093Z,4.60
2023-04-20T05:32:34.892Z,5.30
2023-04-20T05:34:03.496Z,4.50
2023-04-20T05:36:22.498Z,5.80
2023-04-20T05:38:25.712Z,5.50
2023-04-20T05:44:22.346Z,5.90
2023-04-20T05:46:41.130Z,3.50
2023-04-20T05:53:15.558Z,5.80
2023-04-20T05:54:43.890Z,9.10
2023-04-20T05:58:45.250Z,6.70
2023-04-20T06:00:15.265Z,6.10
2023-04-20T06:02:11.397Z,6.40
2023-04-20T06:04:03.176Z,4.20
2023-04-20T06:06:02.376Z,4.00
2023-04-20T06:07:30.285Z,4.50
2023-04-20T06:08:58.324Z,5.30
2023-04-20T06:11:08.811Z,4.30
2023-04-20T06:15:32.384Z,8.30
2023-04-20T06:17:02.247Z,5.20
2023-04-20T06:21:32.018Z,4.40
2023-04-20T06:23:21.277Z,5.00
2023-04-20T06:26:13.477Z,5.80
2023-04-20T06:29:40.083Z,5.30
2023-04-20T06:31:57.293Z,4.10
2023-04-20T06:33:58.799Z,8.10
2023-04-20T06:38:24.606Z,8.70
2023-04-20T06:40:34.023Z,5.50
2023-04-20T06:42:35.956Z,4.70
2023-04-20T06:44:02.895Z,7.40
2023-04-20T06:47:02.832Z,6.00
2023-04-20T06:56:12.119Z,6.90
2023-04-20T06:58:11.262Z,7.80
2023-04-20T06:59:39.593Z,4.40
2023-04-20T07:01:31.310Z,4.90
2023-04-20T07:05:54.301Z,5.80
2023-04-20T07:09:23.244Z,8.00
2023-04-20T07:12:04.595Z,5.20
2023-04-20T07:14:01.589Z,4.80
2023-04-20T07:16:51.333Z,7.60
2023-04-20T07:18:21.589Z,6.40
2023-04-20T07:23:23.332Z,7.20
2023-04-20T07:26:38.413Z,5.10
2023-04-20T07:29:47.442Z,7.20
2023-04-20T07:31:49.674Z,8.60
2023-04-20T07:33:36.822Z,6.40
2023-04-20T07:35:36.501Z,6.70
2023-04-20T07:37:07.534Z,6.60
2023-04-20T07:38:57.377Z,7.10
2023-04-20T07:40:59.454Z,6.40
2023-04-20T07:43:48.252Z,8.00
2023-04-20T07:47:46.876Z,5.10
2023-04-20T07:51:32.366Z,5.00
2023-04-20T07:53:49.713Z,6.00
2023-04-20T07:55:17.930Z,7.10
2023-04-20T07:57:48.722Z,5.30
2023-04-20T07:59:19.693Z,5.70
2023-04-20T08:00:46.700Z,7.20
2023-04-20T08:02:17.693Z,7.80
2023-04-20T08:03:47.243Z,5.50
2023-04-20T08:06:52.096Z,8.50
2023-04-20T08:08:51.539Z,6.50
2023-04-20T08:13:47.696Z,6.20
2023-04-20T08:17:46.104Z,7.70
2023-04-20T08:20:15.495Z,7.00
2023-04-20T08:22:36.412Z,6.60
2023-04-20T08:24:47.165Z,7.00
2023-04-20T08:26:47.556Z,7.90
2023-04-20T08:29:07.249Z,6.10
2023-04-20T08:37:04.459Z,4.70
2023-04-20T08:40:18.088Z,7.40
2023-04-20T08:41:48.915Z,7.00
2023-04-20T08:43:33.954Z,5.60
2023-04-20T08:48:51.954Z,4.10
2023-04-20T08:50:21.454Z,4.20
2023-04-20T08:51:51.066Z,4.30
2023-04-20T08:56:18.038Z,5.20
2023-04-20T09:04:49.143Z,4.20
2023-04-20T09:07:41.987Z,4.30
2023-04-20T09:11:47.180Z,7.80
2023-04-20T09:13:13.891Z,4.80
2023-04-20T09:14:43.029Z,5.70
2023-04-20T09:16:13.716Z,4.70
2023-04-20T09:19:31.586Z,3.80
2023-04-20T09:26:54.225Z,4.90
2023-04-20T09:28:48.088Z,4.20
2023-04-20T09:39:31.878Z,4.00
2023-04-20T09:42:40.511Z,3.90
2023-04-20T09:50:10.293Z,5.30
2023-04-20T09:52:20.558Z,5.70
2023-04-20T09:53:47.660Z,6.20
2023-04-20T09:56:51.695Z,4.40
2023-04-20T09:58:18.803Z,5.00
2023-04-20T10:00:17.606Z,4.60
2023-04-20T10:02:17.771Z,5.80
2023-04-20T10:04:45.553Z,6.00
2023-04-20T10:06:44.086Z,6.50
2023-04-20T10:08:41.882Z,6.20
2023-04-20T10:10:10.813Z,5.60
2023-04-20T10:12:01.457Z,7.40
2023-04-20T10:13:28.585Z,5.30
2023-04-20T10:16:17.349Z,7.20
2023-04-20T10:22:18.148Z,5.40
2023-04-20T10:26:45.489Z,5.30
2023-04-20T10:29:22.938Z,6.70
2023-04-20T10:31:25.083Z,6.20
2023-04-20T10:35:04.474Z,6.50
2023-04-20T10:39:37.879Z,4.50
2023-04-20T10:42:42.203Z,4.90
2023-04-20T10:46:03.008Z,5.10
2023-04-20T10:48:53.551Z,4.80
2023-04-20T10:51:13.142Z,5.10
2023-04-20T10:52:13.127Z,5.00
2023-04-20T10:53:13.099Z,5.70
2023-04-20T10:54:15.422Z,5.10
2023-04-20T10:56:35.701Z,6.40
2023-04-20T11:01:20.289Z,5.80
2023-04-20T11:06:04.458Z,4.70
2023-04-20T11:08:35.687Z,5.20
2023-04-20T11:10:31.746Z,5.20
2023-04-20T11:16:44.811Z,5.50
2023-04-20T11:18:02.515Z,6.10
2023-04-20T11:21:22.671Z,4.60
2023-04-20T11:23:49.815Z,5.20
2023-04-20T11:26:53.200Z,5.10
2023-04-20T11:32:35.062Z,9.00
2023-04-20T11:37:07.790Z,7.00
2023-04-20T11:38:36.712Z,4.30
2023-04-20T11:40:30.486Z,4.90
2023-04-20T11:56:07.075Z,5.20
2023-04-20T12:00:29.184Z,5.10
2023-04-20T12:04:05.733Z,5.30
2023-04-20T12:06:15.049Z,5.40
2023-04-20T12:11:23.360Z,5.00
2023-04-20T12:13:30.170Z,5.10
2023-04-20T12:16:38.830Z,7.50
2023-04-20T12:22:42.372Z,8.60
2023-04-20T12:24:11.091Z,6.50
2023-04-20T12:26:50.324Z,5.40
2023-04-20T12:30:10.852Z,5.90
2023-04-20T12:37:20.122Z,7.80
2023-04-20T12:40:59.999Z,5.80
2023-04-20T12:47:02.420Z,6.40
2023-04-20T12:52:19.428Z,7.10
2023-04-20T12:55:30.424Z,6.40
2023-04-20T12:59:26.117Z,6.30
2023-04-20T13:01:21.462Z,5.90
2023-04-20T13:04:33.771Z,7.70
2023-04-20T13:06:54.614Z,6.60
2023-04-20T13:09:11.034Z,5.40
2023-04-20T13:11:19.804Z,4.90
2023-04-20T13:13:33.208Z,4.90
2023-04-20T13:17:33.030Z,4.60
2023-04-20T13:19:43.437Z,5.80
2023-04-20T13:21:34.846Z,5.80
2023-04-20T13:28:14.863Z,4.90
2023-04-20T13:30:34.264Z,5.70
2023-04-20T13:37:34.398Z,5.00
2023-04-20T13:39:07.138Z,4.20
2023-04-20T13:40:32.910Z,7.50
2023-04-20T13:43:11.485Z,5.40
2023-04-20T13:44:40.383Z,5.30
2023-04-20T13:46:12.226Z,5.10
2023-04-20T13:49:17.932Z,6.30
2023-04-20T13:55:27.601Z,6.40
2023-04-20T13:56:57.218Z,5.30
2023-04-20T14:03:08.934Z,5.40
2023-04-20T14:04:39.633Z,5.10
2023-04-20T14:08:17.947Z,4.90
2023-04-20T14:09:47.817Z,4.70
2023-04-20T14:11:18.792Z,4.80
2023-04-20T14:14:54.253Z,5.20
2023-04-20T14:16:24.668Z,4.50
2023-04-20T14:17:55.472Z,4.00
2023-04-20T14:20:15.749Z,5.00
2023-04-20T14:23:08.865Z,4.90
2023-04-20T14:24:56.078Z,4.90
2023-04-20T14:29:01.810Z,4.40
2023-04-20T14:30:30.683Z,5.20
2023-04-20T14:32:17.623Z,4.60
2023-04-20T14:36:23.898Z,11.50
2023-04-20T14:38:11.238Z,4.60
2023-04-20T14:41:01.138Z,6.50
2023-04-20T14:42:33.108Z,6.00
2023-04-20T14:44:02.404Z,5.30
2023-04-20T14:46:01.708Z,5.10
2023-04-20T14:47:30.660Z,5.30
2023-04-20T14:49:02.448Z,5.50
2023-04-20T14:51:49.884Z,5.40
2023-04-20T14:54:11.978Z,5.70
2023-04-20T14:57:49.851Z,5.30
2023-04-20T15:01:34.693Z,5.40
2023-04-20T15:04:23.512Z,6.40
2023-04-20T15:07:32.961Z,5.50
2023-04-20T15:10:48.026Z,6.40
2023-04-20T15:11:46.988Z,5.70
2023-04-20T15:12:48.782Z,5.30
2023-04-20T15:14:16.575Z,10.90
2023-04-20T15:22:16.755Z,6.70
2023-04-20T15:25:09.357Z,5.20
2023-04-20T15:30:02.559Z,5.20
2023-04-20T15:32:54.134Z,5.40
2023-04-20T15:36:01.905Z,4.90
2023-04-20T15:39:42.178Z,4.70
2023-04-20T15:42:53.648Z,4.30
2023-04-20T15:44:26.632Z,6.10
2023-04-20T15:46:42.445Z,5.90
2023-04-20T15:48:35.440Z,5.30
2023-04-20T15:50:01.271Z,5.40
2023-04-20T15:52:53.558Z,6.00
2023-04-20T15:58:00.171Z,5.10
2023-04-20T16:00:50.193Z,4.60
2023-04-20T16:02:27.442Z,5.10
2023-04-20T16:06:05.863Z,4.80
2023-04-20T16:10:14.962Z,4.70
2023-04-20T16:12:15.568Z,5.20
2023-04-20T16:16:32.689Z,5.50
2023-04-20T16:18:39.420Z,4.50
2023-04-20T16:20:03.177Z,5.80
2023-04-20T16:23:36.298Z,5.10
2023-04-20T16:26:15.781Z,4.90
2023-04-20T16:27:44.916Z,4.80
2023-04-20T16:29:12.873Z,5.50
2023-04-20T16:37:56.421Z,5.50
2023-04-20T16:46:59.659Z,5.50
2023-04-20T16:49:17.154Z,5.70
2023-04-20T16:52:17.469Z,5.80
2023-04-20T16:56:16.329Z,5.10
2023-04-20T17:00:27.312Z,4.70
2023-04-20T17:02:50.003Z,5.90
2023-04-20T17:04:17.248Z,7.10
2023-04-20T17:06:56.464Z,6.00
2023-04-20T17:08:56.326Z,5.40
2023-04-20T17:10:47.433Z,5.90
2023-04-20T17:12:35.896Z,6.50
2023-04-20T17:14:04.876Z,6.30
2023-04-20T17:16:09.405Z,5.70
2023-04-20T17:21:59.452Z,5.60
2023-04-20T17:23:58.676Z,6.60
2023-04-20T17:26:45.403Z,5.70
2023-04-20T17:31:33.083Z,6.00
2023-04-20T17:34:31.625Z,7.40
2023-04-20T17:40:03.277Z,6.20
2023-04-20T17:42:34.521Z,7.50
2023-04-20T17:46:02.917Z,8.70
2023-04-20T17:46:41.807Z,9.40
2023-04-20T17:47:42.568Z,9.50
2023-04-20T17:49:02.808Z,7.30
2023-04-20T17:52:20.531Z,10.20
2023-04-20T17:55:42.131Z,9.00
2023-04-20T17:58:20.316Z,6.80
2023-04-20T17:59:20.313Z,8.60
2023-04-20T18:00:22.121Z,9.20
2023-04-20T18:05:54.754Z,8.70
2023-04-20T18:12:23.404Z,10.30
2023-04-20T18:14:17.871Z,10.00
2023-04-20T18:15:47.690Z,9.10
2023-04-20T18:17:47.607Z,9.00
2023-04-20T18:22:46.522Z,9.40
2023-04-20T18:24:35.877Z,13.70
2023-04-20T18:27:20.365Z,11.40
2023-04-20T18:29:38.485Z,10.90
2023-04-20T18:35:26.482Z,10.30
2023-04-20T18:36:55.216Z,12.70
2023-04-20T18:38:22.855Z,11.30
2023-04-20T18:39:54.112Z,10.90
2023-04-20T18:41:54.889Z,10.80
2023-04-20T18:44:49.134Z,11.60
2023-04-20T18:48:10.016Z,12.90
2023-04-20T18:50:34.570Z,12.30
2023-04-20T18:52:30.906Z,14.20
2023-04-20T18:55:30.712Z,11.80
2023-04-20T19:00:37.842Z,13.20
2023-04-20T19:02:08.072Z,11.90
2023-04-20T19:04:09.569Z,13.20
2023-04-20T19:07:29.080Z,12.40
2023-04-20T19:11:32.761Z,12.90
2023-04-20T19:12:31.513Z,12.70
2023-04-20T19:13:51.770Z,12.50
2023-04-20T19:18:44.717Z,12.00
2023-04-20T19:20:14.602Z,11.60
2023-04-20T19:22:03.405Z,11.40
2023-04-20T19:27:52.328Z,12.50
2023-04-20T19:28:52.320Z,12.60
2023-04-20T19:29:52.324Z,13.30
2023-04-20T19:30:52.366Z,14.50
2023-04-20T19:33:47.278Z,12.40
2023-04-20T19:35:18.060Z,15.50
2023-04-20T19:38:08.169Z,23.10
2023-04-20T19:39:55.202Z,24.50
2023-04-20T19:42:42.893Z,28.40
2023-04-20T19:47:12.904Z,18.70
2023-04-20T19:50:37.969Z,14.50
2023-04-20T19:52:42.919Z,14.10
2023-04-20T19:54:10.956Z,12.90
2023-04-20T19:55:42.070Z,14.10
2023-04-20T19:57:42.409Z,12.60
2023-04-20T20:00:31.940Z,12.60
2023-04-20T20:02:02.638Z,15.50
2023-04-20T20:05:49.865Z,14.20
2023-04-20T20:07:21.231Z,13.20
2023-04-20T20:10:10.070Z,12.10
2023-04-20T20:11:37.607Z,11.60
2023-04-20T20:17:34.367Z,12.80
2023-04-20T20:20:52.281Z,13.40
2023-04-20T20:22:21.306Z,13.90
2023-04-20T20:24:13.019Z,12.30
2023-04-20T20:29:38.652Z,14.10
2023-04-20T20:31:06.905Z,15.90
2023-04-20T20:37:06.326Z,15.40
2023-04-20T20:38:38.922Z,15.20
2023-04-20T20:40:09.129Z,14.60
2023-04-20T20:42:57.706Z,15.70
2023-04-20T20:44:58.542Z,22.40
2023-04-20T20:49:52.181Z,24.20
2023-04-20T20:51:18.942Z,19.70
2023-04-20T20:52:48.633Z,18.50
2023-04-20T20:55:15.970Z,17.00
2023-04-20T20:57:37.719Z,16.50
2023-04-20T21:00:08.861Z,18.80
2023-04-20T21:01:55.827Z,18.60
2023-04-20T21:04:55.281Z,19.40
2023-04-20T21:07:57.063Z,19.40
2023-04-20T21:10:54.886Z,19.90
2023-04-20T21:15:04.330Z,21.40
2023-04-20T21:17:05.209Z,21.50
2023-04-20T21:19:24.315Z,21.20
2023-04-20T21:20:54.249Z,23.30
2023-04-20T21:22:44.097Z,23.10
2023-04-20T21:24:14.240Z,24.90
2023-04-20T21:25:43.159Z,25.10
2023-04-20T21:27:33.143Z,24.00
2023-04-20T21:29:04.712Z,25.30
2023-04-20T21:31:05.698Z,23.30
2023-04-20T21:34:27.412Z,22.10
2023-04-20T21:35:58.372Z,22.80
2023-04-20T21:38:25.029Z,20.30
2023-04-20T21:39:58.082Z,21.70
2023-04-20T21:41:28.040Z,22.70
2023-04-20T21:45:22.343Z,24.50
2023-04-20T21:46:51.120Z,24.30
2023-04-20T21:50:43.336Z,24.80
2023-04-20T21:53:11.174Z,26.50
2023-04-20T21:54:42.891Z,26.00
2023-04-20T21:58:50.458Z,26.20
2023-04-20T22:01:28.410Z,24.20
2023-04-20T22:03:03.629Z,28.40
2023-04-20T22:06:58.648Z,26.60
2023-04-20T22:11:12.323Z,26.60
2023-04-20T22:12:44.460Z,23.70
2023-04-20T22:15:14.915Z,23.80
2023-04-20T22:16:42.024Z,26.10
2023-04-20T22:19:56.769Z,26.10
2023-04-20T22:21:23.903Z,23.40
2023-04-20T22:24:17.392Z,24.90
2023-04-20T22:27:38.618Z,25.40
2023-04-20T22:30:15.644Z,23.50
2023-04-20T22:33:52.538Z,23.20
2023-04-20T22:36:11.749Z,23.80
2023-04-20T22:37:39.652Z,23.80
2023-04-20T22:39:12.752Z,22.50
2023-04-20T22:41:29.733Z,22.50
2023-04-20T22:54:38.361Z,23.00
2023-04-20T23:01:48.482Z,19.70
2023-04-20T23:04:08.245Z,24.90
2023-04-20T23:04:46.143Z,23.60
2023-04-20T23:05:46.069Z,20.30
2023-04-20T23:07:45.276Z,22.00
2023-04-20T23:09:46.150Z,20.60
2023-04-20T23:11:16.059Z,21.40
2023-04-20T23:12:47.974Z,23.00
2023-04-20T23:16:58.416Z,20.60
2023-04-20T23:18:28.807Z,19.90
2023-04-20T23:21:47.052Z,22.20
2023-04-20T23:23:36.810Z,21.50
2023-04-20T23:25:44.644Z,21.50
2023-04-20T23:27:39.552Z,19.80
2023-04-20T23:30:30.928Z,20.90
2023-04-20T23:32:28.858Z,21.80
2023-04-20T23:33:57.180Z,18.90
2023-04-20T23:36:31.225Z,19.10
2023-04-20T23:47:20.381Z,19.80
2023-04-20T23:49:50.025Z,20.60
2023-04-20T23:51:18.530Z,22.80
2023-04-20T23:52:48.706Z,20.90
2023-04-20T23:54:17.513Z,22.00
2023-04-20T23:55:47.545Z,20.90
2023-04-20T23:57:38.216Z,20.80
2023-04-20T23:59:36.076Z,20.10
